sensor_id;sensor_type;location;lat;lon;timestamp;pressure;altitude;pressure_sealevel;temperature;humidity
50977;BME280;36992;48.200;12.418;2023-07-13T00:01:49;96654.63;;;24.06;53.98
50977;BME280;36992;48.200;12.418;2023-07-13T00:04:17;96647.97;;;24.07;53.53
50977;BME280;36992;48.200;12.418;2023-07-13T00:06:44;96652.66;;;24.03;54.05
50977;BME280;36992;48.200;12.418;2023-07-13T00:09:12;96638.91;;;24.03;53.32
50977;BME280;36992;48.200;12.418;2023-07-13T00:11:39;96629.44;;;24.01;53.53
50977;BME280;36992;48.200;12.418;2023-07-13T00:14:06;96622.78;;;24.02;54.00
50977;BME280;36992;48.200;12.418;2023-07-13T00:16:33;96620.41;;;24.00;53.76
50977;BME280;36992;48.200;12.418;2023-07-13T00:19:00;96634.16;;;24.00;53.87
50977;BME280;36992;48.200;12.418;2023-07-13T00:21:28;96635.72;;;24.01;53.59
50977;BME280;36992;48.200;12.418;2023-07-13T00:23:55;96633.75;;;23.98;54.10
50977;BME280;36992;48.200;12.418;2023-07-13T00:26:21;96633.75;;;23.98;53.30
50977;BME280;36992;48.200;12.418;2023-07-13T00:28:48;96625.88;;;23.96;53.54
50977;BME280;36992;48.200;12.418;2023-07-13T00:31:14;96619.56;;;23.96;53.47
50977;BME280;36992;48.200;12.418;2023-07-13T00:33:41;96640.81;;;23.95;53.57
50977;BME280;36992;48.200;12.418;2023-07-13T00:36:09;96634.50;;;23.95;53.50
50977;BME280;36992;48.200;12.418;2023-07-13T00:38:37;96641.59;;;23.96;53.47
50977;BME280;36992;48.200;12.418;2023-07-13T00:41:04;96641.97;;;23.91;53.69
50977;BME280;36992;48.200;12.418;2023-07-13T00:43:30;96630.53;;;23.89;53.85
50977;BME280;36992;48.200;12.418;2023-07-13T00:46:14;96636.06;;;23.92;53.24
50977;BME280;36992;48.200;12.418;2023-07-13T00:48:44;96636.84;;;23.89;53.42
50977;BME280;36992;48.200;12.418;2023-07-13T00:51:12;96636.00;;;23.85;53.97
50977;BME280;36992;48.200;12.418;2023-07-13T00:53:41;96635.25;;;23.84;53.66
50977;BME280;36992;48.200;12.418;2023-07-13T00:56:08;96635.25;;;23.84;53.87
50977;BME280;36992;48.200;12.418;2023-07-13T00:58:35;96634.06;;;23.85;54.68
50977;BME280;36992;48.200;12.418;2023-07-13T01:01:02;96634.47;;;23.88;53.46
50977;BME280;36992;48.200;12.418;2023-07-13T01:03:28;96635.66;;;23.90;53.81
50977;BME280;36992;48.200;12.418;2023-07-13T01:05:55;96624.28;;;23.92;53.05
50977;BME280;36992;48.200;12.418;2023-07-13T01:08:22;96632.94;;;23.94;54.13
50977;BME280;36992;48.200;12.418;2023-07-13T01:10:54;96625.13;;;24.00;53.34
50977;BME280;36992;48.200;12.418;2023-07-13T01:13:21;96633.75;;;23.98;53.72
50977;BME280;36992;48.200;12.418;2023-07-13T01:15:50;96624.69;;;23.97;54.02
50977;BME280;36992;48.200;12.418;2023-07-13T01:18:26;96631.41;;;24.00;53.14
50977;BME280;36992;48.200;12.418;2023-07-13T01:20:55;96620.38;;;23.96;53.24
50977;BME280;36992;48.200;12.418;2023-07-13T01:23:22;96630.53;;;23.89;53.84
50977;BME280;36992;48.200;12.418;2023-07-13T01:25:49;96625.81;;;23.85;54.04
50977;BME280;36992;48.200;12.418;2023-07-13T01:28:16;96628.16;;;23.83;53.52
50977;BME280;36992;48.200;12.418;2023-07-13T01:30:44;96621.88;;;23.83;53.63
50977;BME280;36992;48.200;12.418;2023-07-13T01:33:12;96626.56;;;23.82;53.63
50977;BME280;36992;48.200;12.418;2023-07-13T01:35:39;96618.31;;;23.82;53.80
50977;BME280;36992;48.200;12.418;2023-07-13T01:38:07;96623.84;;;23.86;52.71
50977;BME280;36992;48.200;12.418;2023-07-13T01:40:35;96625.81;;;23.85;53.65
50977;BME280;36992;48.200;12.418;2023-07-13T01:43:02;96623.47;;;23.88;53.91
50977;BME280;36992;48.200;12.418;2023-07-13T01:45:28;96617.22;;;23.91;53.68
50977;BME280;36992;48.200;12.418;2023-07-13T01:47:55;96621.16;;;23.93;53.86
50977;BME280;36992;48.200;12.418;2023-07-13T01:50:23;96623.94;;;23.97;52.82
50977;BME280;36992;48.200;12.418;2023-07-13T01:52:49;96624.31;;;23.99;53.31
50977;BME280;36992;48.200;12.418;2023-07-13T01:55:17;96618.84;;;24.03;52.50
50977;BME280;36992;48.200;12.418;2023-07-13T01:57:43;96617.66;;;24.04;53.63
50977;BME280;36992;48.200;12.418;2023-07-13T02:00:11;96624.38;;;24.06;52.57
50977;BME280;36992;48.200;12.418;2023-07-13T02:02:38;96620.47;;;24.07;52.70
50977;BME280;36992;48.200;12.418;2023-07-13T02:05:05;96622.03;;;24.08;53.04
50977;BME280;36992;48.200;12.418;2023-07-13T02:07:32;96629.16;;;24.09;53.11
50977;BME280;36992;48.200;12.418;2023-07-13T02:09:58;96633.09;;;24.12;52.75
50977;BME280;36992;48.200;12.418;2023-07-13T02:12:26;96636.25;;;24.14;53.18
50977;BME280;36992;48.200;12.418;2023-07-13T02:14:53;96632.69;;;24.14;52.09
50977;BME280;36992;48.200;12.418;2023-07-13T02:17:19;96628.75;;;24.15;53.31
50977;BME280;36992;48.200;12.418;2023-07-13T02:19:46;96633.88;;;24.16;53.36
50977;BME280;36992;48.200;12.418;2023-07-13T02:22:12;96633.13;;;24.16;52.87
50977;BME280;36992;48.200;12.418;2023-07-13T02:24:39;96637.00;;;24.15;52.92
50977;BME280;36992;48.200;12.418;2023-07-13T02:27:06;96635.44;;;24.14;52.73
50977;BME280;36992;48.200;12.418;2023-07-13T02:29:34;96637.00;;;24.15;52.85
50977;BME280;36992;48.200;12.418;2023-07-13T02:32:00;96640.94;;;24.14;52.92
50977;BME280;36992;48.200;12.418;2023-07-13T02:34:27;96638.59;;;24.12;53.09
50977;BME280;36992;48.200;12.418;2023-07-13T02:36:53;96638.59;;;24.12;53.11
50977;BME280;36992;48.200;12.418;2023-07-13T02:39:19;96644.47;;;24.10;53.66
50977;BME280;36992;48.200;12.418;2023-07-13T02:41:46;96648.78;;;24.08;53.35
50977;BME280;36992;48.200;12.418;2023-07-13T02:44:13;96648.72;;;24.04;52.78
50977;BME280;36992;48.200;12.418;2023-07-13T02:46:41;96643.22;;;24.04;53.01
50977;BME280;36992;48.200;12.418;2023-07-13T02:49:07;96643.97;;;24.01;53.99
50977;BME280;36992;48.200;12.418;2023-07-13T02:51:34;96640.03;;;23.98;53.37
50977;BME280;36992;48.200;12.418;2023-07-13T02:54:01;96640.00;;;23.95;52.97
50977;BME280;36992;48.200;12.418;2023-07-13T02:56:29;96643.94;;;23.94;53.44
50977;BME280;36992;48.200;12.418;2023-07-13T02:58:56;96639.22;;;23.91;53.73
50977;BME280;36992;48.200;12.418;2023-07-13T03:01:24;96641.53;;;23.89;53.51
50977;BME280;36992;48.200;12.418;2023-07-13T03:03:52;96645.88;;;23.90;53.14
50977;BME280;36992;48.200;12.418;2023-07-13T03:06:19;96653.31;;;23.85;53.72
50977;BME280;36992;48.200;12.418;2023-07-13T03:08:47;96667.44;;;23.84;53.51
50977;BME280;36992;48.200;12.418;2023-07-13T03:11:17;96663.91;;;23.83;53.85
50977;BME280;36992;48.200;12.418;2023-07-13T03:13:44;96660.75;;;23.81;53.56
50977;BME280;36992;48.200;12.418;2023-07-13T03:16:11;96657.22;;;23.81;53.50
50977;BME280;36992;48.200;12.418;2023-07-13T03:18:38;96672.91;;;23.80;54.27
50977;BME280;36992;48.200;12.418;2023-07-13T03:21:06;96668.22;;;23.81;53.43
50977;BME280;36992;48.200;12.418;2023-07-13T03:23:33;96678.78;;;23.79;53.77
50977;BME280;36992;48.200;12.418;2023-07-13T03:26:04;96674.50;;;23.81;53.82
50977;BME280;36992;48.200;12.418;2023-07-13T03:28:31;96681.50;;;23.75;54.25
50977;BME280;36992;48.200;12.418;2023-07-13T03:31:02;96675.28;;;23.78;53.35
50977;BME280;36992;48.200;12.418;2023-07-13T03:33:29;96672.88;;;23.73;53.67
50977;BME280;36992;48.200;12.418;2023-07-13T03:35:56;96676.78;;;23.72;54.15
50977;BME280;36992;48.200;12.418;2023-07-13T03:38:24;96677.56;;;23.73;54.03
50977;BME280;36992;48.200;12.418;2023-07-13T03:40:51;96679.91;;;23.70;53.92
50977;BME280;36992;48.200;12.418;2023-07-13T03:43:17;96683.84;;;23.69;54.21
50977;BME280;36992;48.200;12.418;2023-07-13T03:45:45;96680.66;;;23.67;53.62
50977;BME280;36992;48.200;12.418;2023-07-13T03:48:12;96677.91;;;23.67;54.57
50977;BME280;36992;48.200;12.418;2023-07-13T03:50:38;96679.09;;;23.66;54.49
50977;BME280;36992;48.200;12.418;2023-07-13T03:53:05;96675.94;;;23.64;53.57
50977;BME280;36992;48.200;12.418;2023-07-13T03:55:32;96680.63;;;23.64;53.56
50977;BME280;36992;48.200;12.418;2023-07-13T04:00:47;96700.25;;;23.58;54.47
50977;BME280;36992;48.200;12.418;2023-07-13T04:03:13;96697.84;;;23.53;54.73
50977;BME280;36992;48.200;12.418;2023-07-13T04:05:40;96700.94;;;23.48;54.73
50977;BME280;36992;48.200;12.418;2023-07-13T04:08:06;96700.09;;;23.44;54.89
50977;BME280;36992;48.200;12.418;2023-07-13T04:10:34;96696.13;;;23.41;54.38
50977;BME280;36992;48.200;12.418;2023-07-13T04:13:00;96703.94;;;23.36;55.22
50977;BME280;36992;48.200;12.418;2023-07-13T04:15:29;96703.94;;;23.36;54.54
50977;BME280;36992;48.200;12.418;2023-07-13T04:17:56;96714.91;;;23.32;55.24
50977;BME280;36992;48.200;12.418;2023-07-13T04:20:23;96708.94;;;23.30;55.02
50977;BME280;36992;48.200;12.418;2023-07-13T04:22:50;96700.66;;;23.26;54.50
50977;BME280;36992;48.200;12.418;2023-07-13T04:25:17;96706.16;;;23.26;55.28
50977;BME280;36992;48.200;12.418;2023-07-13T04:27:44;96703.00;;;23.24;54.88
50977;BME280;36992;48.200;12.418;2023-07-13T04:30:11;96706.94;;;23.23;55.68
50977;BME280;36992;48.200;12.418;2023-07-13T04:32:38;96706.53;;;23.21;55.54
50977;BME280;36992;48.200;12.418;2023-07-13T04:35:05;96710.41;;;23.20;55.93
50977;BME280;36992;48.200;12.418;2023-07-13T04:37:31;96710.00;;;23.18;55.11
50977;BME280;36992;48.200;12.418;2023-07-13T04:39:58;96717.03;;;23.15;55.99
50977;BME280;36992;48.200;12.418;2023-07-13T04:42:24;96709.16;;;23.14;55.80
50977;BME280;36992;48.200;12.418;2023-07-13T04:44:52;96711.91;;;23.14;56.08
50977;BME280;36992;48.200;12.418;2023-07-13T04:47:19;96715.44;;;23.11;55.35
50977;BME280;36992;48.200;12.418;2023-07-13T04:49:45;96719.34;;;23.10;55.75
50977;BME280;36992;48.200;12.418;2023-07-13T04:52:12;96720.91;;;23.11;56.54
50977;BME280;36992;48.200;12.418;2023-07-13T04:54:38;96723.66;;;23.11;56.02
50977;BME280;36992;48.200;12.418;2023-07-13T04:57:05;96720.13;;;23.10;56.24
50977;BME280;36992;48.200;12.418;2023-07-13T04:59:32;96728.00;;;23.12;56.49
50977;BME280;36992;48.200;12.418;2023-07-13T05:02:00;96733.13;;;23.13;55.00
50977;BME280;36992;48.200;12.418;2023-07-13T05:04:27;96739.38;;;23.14;56.58
50977;BME280;36992;48.200;12.418;2023-07-13T05:06:53;96735.88;;;23.13;56.51
50977;BME280;36992;48.200;12.418;2023-07-13T05:09:20;96740.56;;;23.13;55.32
50977;BME280;36992;48.200;12.418;2023-07-13T05:11:46;96743.31;;;23.13;56.13
50977;BME280;36992;48.200;12.418;2023-07-13T05:14:13;96743.66;;;23.11;55.59
50977;BME280;36992;48.200;12.418;2023-07-13T05:16:40;96746.41;;;23.11;56.26
50977;BME280;36992;48.200;12.418;2023-07-13T05:19:09;96749.22;;;23.15;56.02
50977;BME280;36992;48.200;12.418;2023-07-13T05:21:35;96751.13;;;23.11;56.36
50977;BME280;36992;48.200;12.418;2023-07-13T05:24:02;96747.59;;;23.10;55.97
50977;BME280;36992;48.200;12.418;2023-07-13T05:26:31;96746.00;;;23.09;55.75
50977;BME280;36992;48.200;12.418;2023-07-13T05:28:57;96750.34;;;23.10;56.12
50977;BME280;36992;48.200;12.418;2023-07-13T05:31:24;96751.53;;;23.13;56.50
50977;BME280;36992;48.200;12.418;2023-07-13T05:33:50;96753.13;;;23.14;56.05
50977;BME280;36992;48.200;12.418;2023-07-13T05:36:18;96750.00;;;23.15;56.00
50977;BME280;36992;48.200;12.418;2023-07-13T05:38:45;96753.56;;;23.16;54.87
50977;BME280;36992;48.200;12.418;2023-07-13T05:41:11;96753.16;;;23.17;56.43
50977;BME280;36992;48.200;12.418;2023-07-13T05:43:38;96753.97;;;23.18;56.46
50977;BME280;36992;48.200;12.418;2023-07-13T05:46:04;96762.63;;;23.20;56.34
50977;BME280;36992;48.200;12.418;2023-07-13T05:48:31;96760.31;;;23.22;55.52
50977;BME280;36992;48.200;12.418;2023-07-13T05:50:57;96766.22;;;23.24;56.29
50977;BME280;36992;48.200;12.418;2023-07-13T05:53:25;96761.91;;;23.27;55.64
50977;BME280;36992;48.200;12.418;2023-07-13T05:55:53;96770.22;;;23.30;56.21
50977;BME280;36992;48.200;12.418;2023-07-13T05:58:21;96755.25;;;23.28;56.29
50977;BME280;36992;48.200;12.418;2023-07-13T06:00:48;96761.56;;;23.28;56.20
50977;BME280;36992;48.200;12.418;2023-07-13T06:03:15;96767.03;;;23.28;55.40
50977;BME280;36992;48.200;12.418;2023-07-13T06:05:41;96758.81;;;23.28;56.44
50977;BME280;36992;48.200;12.418;2023-07-13T06:08:08;96764.31;;;23.28;56.04
50977;BME280;36992;48.200;12.418;2023-07-13T06:10:36;96772.16;;;23.30;56.32
50977;BME280;36992;48.200;12.418;2023-07-13T06:13:03;96773.72;;;23.27;56.34
50977;BME280;36992;48.200;12.418;2023-07-13T06:15:29;96772.09;;;23.26;55.60
50977;BME280;36992;48.200;12.418;2023-07-13T06:17:56;96770.53;;;23.25;55.30
50977;BME280;36992;48.200;12.418;2023-07-13T06:20:22;96776.03;;;23.25;55.24
50977;BME280;36992;48.200;12.418;2023-07-13T06:22:49;96793.69;;;23.24;56.05
50977;BME280;36992;48.200;12.418;2023-07-13T06:25:15;96789.34;;;23.23;55.58
50977;BME280;36992;48.200;12.418;2023-07-13T06:27:44;96787.81;;;23.26;55.73
50977;BME280;36992;48.200;12.418;2023-07-13T06:30:11;96794.84;;;23.23;55.25
50977;BME280;36992;48.200;12.418;2023-07-13T06:32:38;96800.34;;;23.23;55.78
50977;BME280;36992;48.200;12.418;2023-07-13T06:35:05;96794.84;;;23.23;54.68
50977;BME280;36992;48.200;12.418;2023-07-13T06:37:32;96798.00;;;23.25;54.98
50977;BME280;36992;48.200;12.418;2023-07-13T06:39:58;96800.75;;;23.25;54.80
50977;BME280;36992;48.200;12.418;2023-07-13T06:42:25;96804.31;;;23.26;55.49
50977;BME280;36992;48.200;12.418;2023-07-13T06:44:52;96805.53;;;23.28;55.97
50977;BME280;36992;48.200;12.418;2023-07-13T06:47:19;96806.63;;;23.24;55.60
50977;BME280;36992;48.200;12.418;2023-07-13T06:49:45;96808.59;;;23.23;55.38
50977;BME280;36992;48.200;12.418;2023-07-13T06:52:12;96821.91;;;23.21;55.68
50977;BME280;36992;48.200;12.418;2023-07-13T06:54:39;96819.91;;;23.18;55.71
50977;BME280;36992;48.200;12.418;2023-07-13T06:57:05;96820.28;;;23.16;55.65
50977;BME280;36992;48.200;12.418;2023-07-13T06:59:32;96819.06;;;23.14;55.53
50977;BME280;36992;48.200;12.418;2023-07-13T07:02:00;96823.41;;;23.15;56.10
50977;BME280;36992;48.200;12.418;2023-07-13T07:04:26;96824.16;;;23.12;55.66
50977;BME280;36992;48.200;12.418;2023-07-13T07:06:54;96827.31;;;23.14;55.72
50977;BME280;36992;48.200;12.418;2023-07-13T07:09:20;96824.56;;;23.14;56.02
50977;BME280;36992;48.200;12.418;2023-07-13T07:11:47;96829.69;;;23.15;56.46
50977;BME280;36992;48.200;12.418;2023-07-13T07:14:13;96832.47;;;23.19;55.80
50977;BME280;36992;48.200;12.418;2023-07-13T07:16:40;96819.19;;;23.21;55.30
50977;BME280;36992;48.200;12.418;2023-07-13T07:19:08;96820.00;;;23.25;55.62
50977;BME280;36992;48.200;12.418;2023-07-13T07:21:34;96824.75;;;23.28;55.88
50977;BME280;36992;48.200;12.418;2023-07-13T07:24:00;96821.28;;;23.31;55.75
50977;BME280;36992;48.200;12.418;2023-07-13T07:26:28;96831.09;;;23.33;55.43
50977;BME280;36992;48.200;12.418;2023-07-13T07:28:55;96829.19;;;23.37;55.50
50977;BME280;36992;48.200;12.418;2023-07-13T07:31:21;96829.59;;;23.39;54.96
50977;BME280;36992;48.200;12.418;2023-07-13T07:33:48;96830.03;;;23.41;55.78
50977;BME280;36992;48.200;12.418;2023-07-13T07:36:17;96828.09;;;23.45;54.88
50977;BME280;36992;48.200;12.418;2023-07-13T07:38:43;96827.72;;;23.47;55.21
50977;BME280;36992;48.200;12.418;2023-07-13T07:41:10;96834.44;;;23.49;54.25
50977;BME280;36992;48.200;12.418;2023-07-13T07:43:37;96838.41;;;23.52;55.58
50977;BME280;36992;48.200;12.418;2023-07-13T07:46:03;96840.78;;;23.53;55.10
50977;BME280;36992;48.200;12.418;2023-07-13T07:48:30;96837.63;;;23.55;55.19
50977;BME280;36992;48.200;12.418;2023-07-13T07:50:56;96839.66;;;23.58;54.78
50977;BME280;36992;48.200;12.418;2023-07-13T07:53:24;96841.63;;;23.61;54.16
50977;BME280;36992;48.200;12.418;2023-07-13T07:55:50;96848.34;;;23.64;54.68
50977;BME280;36992;48.200;12.418;2023-07-13T07:58:17;96852.31;;;23.66;54.43
50977;BME280;36992;48.200;12.418;2023-07-13T08:00:43;96848.38;;;23.67;54.03
50977;BME280;36992;48.200;12.418;2023-07-13T08:03:10;96848.44;;;23.71;53.64
50977;BME280;36992;48.200;12.418;2023-07-13T08:05:36;96852.78;;;23.72;53.51
50977;BME280;36992;48.200;12.418;2023-07-13T08:08:03;96870.84;;;23.73;53.36
50977;BME280;36992;48.200;12.418;2023-07-13T08:10:31;96865.75;;;23.75;53.42
50977;BME280;36992;48.200;12.418;2023-07-13T08:12:58;96856.72;;;23.75;53.39
50977;BME280;36992;48.200;12.418;2023-07-13T08:15:47;96862.28;;;23.78;53.25
50977;BME280;36992;48.200;12.418;2023-07-13T08:18:14;96860.69;;;23.77;53.40
50977;BME280;36992;48.200;12.418;2023-07-13T08:20:41;96865.44;;;23.80;53.82
50977;BME280;36992;48.200;12.418;2023-07-13T08:23:09;96871.34;;;23.82;53.41
50977;BME280;36992;48.200;12.418;2023-07-13T08:25:36;96875.69;;;23.83;53.20
50977;BME280;36992;48.200;12.418;2023-07-13T08:28:03;96878.03;;;23.85;52.20
50977;BME280;36992;48.200;12.418;2023-07-13T08:30:29;96880.03;;;23.84;52.12
50977;BME280;36992;48.200;12.418;2023-07-13T08:32:57;96892.59;;;23.85;52.57
50977;BME280;36992;48.200;12.418;2023-07-13T08:35:24;96890.59;;;23.82;52.22
50977;BME280;36992;48.200;12.418;2023-07-13T08:37:50;96891.34;;;23.79;52.60
50977;BME280;36992;48.200;12.418;2023-07-13T08:40:19;96892.94;;;23.80;52.66
50977;BME280;36992;48.200;12.418;2023-07-13T08:42:54;96890.53;;;23.79;52.93
50977;BME280;36992;48.200;12.418;2023-07-13T08:45:23;96887.75;;;23.75;53.34
50977;BME280;36992;48.200;12.418;2023-07-13T08:47:53;96894.44;;;23.74;52.97
50977;BME280;36992;48.200;12.418;2023-07-13T08:50:25;96887.34;;;23.73;52.71
50977;BME280;36992;48.200;12.418;2023-07-13T08:52:54;96889.69;;;23.71;52.64
50977;BME280;36992;48.200;12.418;2023-07-13T08:55:26;96888.94;;;23.74;53.28
50977;BME280;36992;48.200;12.418;2023-07-13T08:58:00;96907.38;;;23.74;53.26
50977;BME280;36992;48.200;12.418;2023-07-13T09:00:34;96892.09;;;23.76;52.69
50977;BME280;36992;48.200;12.418;2023-07-13T09:03:05;96904.25;;;23.75;53.01
50977;BME280;36992;48.200;12.418;2023-07-13T09:05:36;96909.03;;;23.78;52.82
50977;BME280;36992;48.200;12.418;2023-07-13T09:08:22;96908.25;;;23.81;53.15
50977;BME280;36992;48.200;12.418;2023-07-13T09:10:53;96901.97;;;23.81;53.31
50977;BME280;36992;48.200;12.418;2023-07-13T09:13:29;96900.03;;;23.85;52.59
50977;BME280;36992;48.200;12.418;2023-07-13T09:16:00;96903.19;;;23.83;52.90
50977;BME280;36992;48.200;12.418;2023-07-13T09:18:30;96904.81;;;23.88;52.75
50977;BME280;36992;48.200;12.418;2023-07-13T09:21:03;96899.34;;;23.92;52.31
50977;BME280;36992;48.200;12.418;2023-07-13T09:23:30;96897.78;;;23.91;52.28
50977;BME280;36992;48.200;12.418;2023-07-13T09:26:01;96901.75;;;23.97;52.77
50977;BME280;36992;48.200;12.418;2023-07-13T09:28:33;96897.03;;;23.97;52.58
50977;BME280;36992;48.200;12.418;2023-07-13T09:31:04;96902.63;;;24.05;52.48
50977;BME280;36992;48.200;12.418;2023-07-13T09:33:32;96906.16;;;24.05;52.51
50977;BME280;36992;48.200;12.418;2023-07-13T09:36:16;96911.00;;;24.12;52.28
50977;BME280;36992;48.200;12.418;2023-07-13T09:38:44;96914.47;;;24.09;51.76
50977;BME280;36992;48.200;12.418;2023-07-13T09:41:19;96914.53;;;24.13;51.88
50977;BME280;36992;48.200;12.418;2023-07-13T09:44:01;96922.03;;;24.16;51.58
50977;BME280;36992;48.200;12.418;2023-07-13T09:46:28;96924.69;;;24.08;49.93
50977;BME280;36992;48.200;12.418;2023-07-13T09:48:55;96927.38;;;24.05;49.53
50977;BME280;36992;48.200;12.418;2023-07-13T09:51:23;96931.66;;;24.02;49.77
50977;BME280;36992;48.200;12.418;2023-07-13T09:53:50;96925.34;;;23.98;50.35
50977;BME280;36992;48.200;12.418;2023-07-13T09:56:20;96926.94;;;23.99;50.25
50977;BME280;36992;48.200;12.418;2023-07-13T09:58:47;96923.72;;;23.93;50.11
50977;BME280;36992;48.200;12.418;2023-07-13T10:01:13;96933.56;;;23.94;47.44
50977;BME280;36992;48.200;12.418;2023-07-13T10:03:51;96932.84;;;24.01;48.32
50977;BME280;36992;48.200;12.418;2023-07-13T10:06:20;96933.97;;;23.96;47.96
50977;BME280;36992;48.200;12.418;2023-07-13T10:08:50;96935.19;;;23.99;47.70
50977;BME280;36992;48.200;12.418;2023-07-13T10:11:19;96923.34;;;23.95;46.65
50977;BME280;36992;48.200;12.418;2023-07-13T10:13:51;96924.53;;;23.97;45.53
50977;BME280;36992;48.200;12.418;2023-07-13T10:16:19;96933.97;;;23.96;45.04
50977;BME280;36992;48.200;12.418;2023-07-13T10:18:48;96927.66;;;23.96;45.69
50977;BME280;36992;48.200;12.418;2023-07-13T10:21:18;96934.78;;;23.97;45.76
50977;BME280;36992;48.200;12.418;2023-07-13T10:23:50;96929.31;;;24.01;45.58
50977;BME280;36992;48.200;12.418;2023-07-13T10:26:26;96934.84;;;24.04;46.93
50977;BME280;36992;48.200;12.418;2023-07-13T10:28:55;96932.44;;;23.99;46.11
50977;BME280;36992;48.200;12.418;2023-07-13T10:31:23;96947.34;;;23.98;45.44
50977;BME280;36992;48.200;12.418;2023-07-13T10:33:50;96947.34;;;23.98;45.75
50977;BME280;36992;48.200;12.418;2023-07-13T10:36:23;96954.44;;;23.99;45.30
50977;BME280;36992;48.200;12.418;2023-07-13T10:38:57;96956.81;;;24.01;46.60
50977;BME280;36992;48.200;12.418;2023-07-13T10:41:26;96965.81;;;23.97;45.61
50977;BME280;36992;48.200;12.418;2023-07-13T10:43:55;96951.28;;;23.97;46.46
50977;BME280;36992;48.200;12.418;2023-07-13T10:46:25;96953.22;;;23.96;45.63
50977;BME280;36992;48.200;12.418;2023-07-13T10:48:56;96951.66;;;23.95;45.60
50977;BME280;36992;48.200;12.418;2023-07-13T10:51:24;96955.94;;;23.93;45.52
50977;BME280;36992;48.200;12.418;2023-07-13T10:54:16;96956.78;;;23.97;46.28
50977;BME280;36992;48.200;12.418;2023-07-13T10:56:44;96955.94;;;23.93;45.62
50977;BME280;36992;48.200;12.418;2023-07-13T10:59:14;96952.03;;;23.94;45.64
50977;BME280;36992;48.200;12.418;2023-07-13T11:01:50;96966.19;;;23.96;45.16
50977;BME280;36992;48.200;12.418;2023-07-13T11:04:18;96964.56;;;23.91;45.31
50977;BME280;36992;48.200;12.418;2023-07-13T11:06:47;96965.38;;;23.92;45.19
50977;BME280;36992;48.200;12.418;2023-07-13T11:09:36;96967.78;;;23.97;46.01
50977;BME280;36992;48.200;12.418;2023-07-13T11:12:09;96976.00;;;23.93;45.73
50977;BME280;36992;48.200;12.418;2023-07-13T11:15:03;96973.63;;;23.92;45.54
50977;BME280;36992;48.200;12.418;2023-07-13T11:17:38;96969.69;;;23.93;46.47
50977;BME280;36992;48.200;12.418;2023-07-13T11:20:34;96973.28;;;23.97;46.88
50977;BME280;36992;48.200;12.418;2023-07-13T11:23:28;96971.69;;;23.96;47.02
50977;BME280;36992;48.200;12.418;2023-07-13T11:25:57;96966.19;;;23.96;46.76
50977;BME280;36992;48.200;12.418;2023-07-13T11:28:27;96974.88;;;23.98;46.15
50977;BME280;36992;48.200;12.418;2023-07-13T11:31:02;96970.25;;;24.06;45.85
50977;BME280;36992;48.200;12.418;2023-07-13T11:33:48;96970.34;;;24.13;45.59
50977;BME280;36992;48.200;12.418;2023-07-13T11:36:17;96960.53;;;24.12;45.75
50977;BME280;36992;48.200;12.418;2023-07-13T11:38:51;96962.53;;;24.19;44.83
50977;BME280;36992;48.200;12.418;2023-07-13T11:41:25;96961.03;;;24.25;44.60
50977;BME280;36992;48.200;12.418;2023-07-13T11:43:55;96956.75;;;24.28;43.89
50977;BME280;36992;48.200;12.418;2023-07-13T11:46:24;96950.53;;;24.34;43.66
50977;BME280;36992;48.200;12.418;2023-07-13T11:48:52;96949.38;;;24.39;43.61
50977;BME280;36992;48.200;12.418;2023-07-13T11:51:21;96950.25;;;24.47;42.53
50977;BME280;36992;48.200;12.418;2023-07-13T11:53:50;96949.13;;;24.51;43.03
50977;BME280;36992;48.200;12.418;2023-07-13T11:56:17;96942.47;;;24.56;42.48
50977;BME280;36992;48.200;12.418;2023-07-13T11:58:48;96931.94;;;24.65;42.64
50977;BME280;36992;48.200;12.418;2023-07-13T12:01:19;96926.47;;;24.73;42.60
50977;BME280;36992;48.200;12.418;2023-07-13T12:03:47;96922.22;;;24.79;41.58
50977;BME280;36992;48.200;12.418;2023-07-13T12:06:25;96929.41;;;24.91;41.46
50977;BME280;36992;48.200;12.418;2023-07-13T12:08:56;96924.75;;;24.99;41.50
50977;BME280;36992;48.200;12.418;2023-07-13T12:11:22;96917.69;;;25.05;38.72
50977;BME280;36992;48.200;12.418;2023-07-13T12:13:50;96922.06;;;25.13;36.63
50977;BME280;36992;48.200;12.418;2023-07-13T12:16:23;96922.09;;;25.21;38.07
50977;BME280;36992;48.200;12.418;2023-07-13T12:18:52;96919.78;;;25.23;34.00
50977;BME280;36992;48.200;12.418;2023-07-13T12:21:22;96906.78;;;25.27;36.43
50977;BME280;36992;48.200;12.418;2023-07-13T12:23:50;96900.13;;;25.28;33.40
50977;BME280;36992;48.200;12.418;2023-07-13T12:26:17;96901.34;;;25.34;32.32
50977;BME280;36992;48.200;12.418;2023-07-13T12:28:47;96902.13;;;25.38;33.71
50977;BME280;36992;48.200;12.418;2023-07-13T12:31:29;96901.00;;;25.46;34.21
50977;BME280;36992;48.200;12.418;2023-07-13T12:33:59;96895.88;;;25.49;32.77
50977;BME280;36992;48.200;12.418;2023-07-13T12:36:26;96895.91;;;25.52;32.02
50977;BME280;36992;48.200;12.418;2023-07-13T12:38:57;96890.03;;;25.57;32.43
50977;BME280;36992;48.200;12.418;2023-07-13T12:41:25;96892.81;;;25.61;32.93
50977;BME280;36992;48.200;12.418;2023-07-13T12:43:52;96888.13;;;25.65;32.76
50977;BME280;36992;48.200;12.418;2023-07-13T12:46:21;96890.47;;;25.70;32.73
50977;BME280;36992;48.200;12.418;2023-07-13T12:48:53;96885.00;;;25.78;35.59
50977;BME280;36992;48.200;12.418;2023-07-13T12:51:22;96881.84;;;25.83;34.55
50977;BME280;36992;48.200;12.418;2023-07-13T12:53:51;96875.94;;;25.88;35.55
50977;BME280;36992;48.200;12.418;2023-07-13T12:56:22;96871.63;;;25.98;33.98
50977;BME280;36992;48.200;12.418;2023-07-13T12:58:56;96862.22;;;26.06;35.78
50977;BME280;36992;48.200;12.418;2023-07-13T13:01:26;96858.28;;;26.15;34.34